Isle of Colonsay, United Kingdom
Current Conditions -  °F | °C
As of 8:50 AM on Sunday 26 Oct 2014 (Local Time) from EGPI Reporting Station
Rain Showers Rain Showers  
Wind Chill: 54°   Ceiling: 4200
Heat Index: 54°   Visibility: 6mi
Dew Point: 50°   Wind: 28mph
Humidity: 88%   Direction: 220°SW
Pressure: 29.65"   Gusts: 41mph
Location:  56.07°N, 6.18°W
Report Text: EGPI 260750Z AUTO 22024G36KT 9999 SHRA FEW019/// BKN042/// 12/10 Q1004
Loading
Personal Weather Stations






























Interactive Weather Map
Tropical Storm Tracking
New forecast layout! Learn more

10-Day Weather Forecast

Advertisements
Track Severe Weather on mobile